Terminal Aerodrome Forecast
Issued by NWS

Home | Current Version | Previous Version | Text Only | Print | Product List | Glossary On
Versions: 1 2 3 4 5 6 7 8 9 10 11 12 13 14 15
000
FTUS43 KDMX 281134
TAFOTM
TAF
KOTM 281134Z 2812/2912 06009KT P6SM SCT070 OVC100
     FM281300 07009KT P6SM VCSH SCT045 OVC070
     FM281400 07011KT 4SM -SHRA BR SCT020 OVC035
     FM282000 05010KT 6SM BR VCSH OVC009
     FM290200 03011KT 6SM BR OVC005=

USA.gov is the U.S. government's official web portal to all federal, state and local government web resources and services.